.
WxDataArchive / Data Records for 2011-12-20
2011-12-19 December 2011 2011-12-21

Data Records for Tuesday, 20 December 2011

Time	Temp	Chill	HIndex	Humid	Dewpt	 Wind 	HiWind	WindDir	Rain 	Barom 
-----	----	-----	------	-----	-----	------	------	-------	-----	----- 
00:00	39.6	39.6	39.6	82	34.6	2	10	45	0.00	30.127 
00:05	39.1	39.1	39.1	83	34.4	1	4	90	0.00	30.127 
00:10	38.5	38.5	38.5	83	33.8	1	6	112	0.00	30.127 
00:15	38.2	38.2	38.2	84	33.8	1	3	112	0.00	30.142 
00:20	37.9	37.9	37.9	84	33.5	1	4	68	0.00	30.142 
00:25	37.5	37.5	37.5	84	33.1	1	4	292	0.00	30.142 
00:30	37.2	37.2	37.2	83	32.5	2	7	68	0.00	30.158 
00:35	37.0	37.0	37.0	83	32.3	0	2	68	0.00	30.158 
00:40	36.9	36.9	36.9	82	31.9	1	3	68	0.00	30.158 
00:45	36.9	36.9	36.9	82	31.9	0	2	68	0.00	30.166 
00:50	36.9	36.9	36.9	81	31.6	0	2	68	0.00	30.166 
00:55	36.8	36.8	36.8	79	30.9	1	5	112	0.00	30.166 
01:00	36.8	36.8	36.8	78	30.6	0	4	68	0.00	30.173 
01:05	36.6	36.6	36.6	77	30.1	0	3	68	0.00	30.173 
01:10	36.6	36.6	36.6	77	30.1	0	2	292	0.00	30.173 
01:15	36.6	36.6	36.6	75	29.4	1	5	112	0.00	30.174 
01:20	36.6	36.6	36.6	75	29.4	0	5	112	0.00	30.174 
01:25	36.6	36.6	36.6	74	29.1	1	4	112	0.00	30.174 
01:30	36.6	36.6	36.6	74	29.1	1	3	112	0.00	30.170 
01:35	36.6	36.6	36.6	74	29.1	1	3	90	0.00	30.170 
01:40	36.6	36.6	36.6	74	29.1	0	2	315	0.00	30.170 
01:45	36.6	36.6	36.6	74	29.1	1	3	315	0.00	30.162 
01:50	36.6	36.6	36.6	74	29.1	0	3	112	0.00	30.162 
01:55	36.5	36.5	36.5	75	29.3	0	4	90	0.00	30.162 
02:00	36.5	36.5	36.5	76	29.7	0	1	68	0.00	30.160 
02:05	36.3	36.3	36.3	77	29.8	0	3	68	0.00	30.160 
02:10	36.2	36.2	36.2	78	30.0	1	3	68	0.00	30.160 
02:15	36.0	36.0	36.0	79	30.1	0	2	68	0.00	30.169 
02:20	35.9	35.9	35.9	79	30.0	0	2	90	0.00	30.169 
02:25	35.9	35.9	35.9	80	30.3	1	4	68	0.00	30.169 
02:30	35.8	35.8	35.8	80	30.2	1	2	68	0.00	30.168 
02:35	35.8	35.8	35.8	81	30.6	0	2	68	0.00	30.168 
02:40	35.8	35.8	35.8	81	30.6	0	3	68	0.00	30.168 
02:45	35.8	35.8	35.8	81	30.6	0	3	68	0.00	30.170 
02:50	35.8	35.8	35.8	82	30.9	0	1	68	0.00	30.170 
02:55	35.8	35.8	35.8	82	30.9	0	1	68	0.00	30.170 
03:00	35.8	35.8	35.8	83	31.2	1	3	68	0.00	30.170 
03:05	35.6	35.6	35.6	83	31.0	1	5	68	0.00	30.170 
03:10	35.5	35.5	35.5	84	31.2	2	4	90	0.00	30.170 
03:15	35.3	35.3	35.3	84	31.0	2	6	90	0.00	30.171 
03:20	35.0	35.0	35.0	84	30.7	1	6	112	0.00	30.171 
03:25	34.9	34.9	34.9	84	30.6	1	4	112	0.00	30.171 
03:30	34.6	34.6	34.6	85	30.6	2	5	112	0.00	30.173 
03:35	34.4	34.4	34.4	86	30.7	1	4	112	0.00	30.173 
03:40	34.1	34.1	34.1	87	30.6	2	5	90	0.00	30.173 
03:45	34.0	34.0	34.0	88	30.8	1	4	90	0.00	30.171 
03:50	33.8	33.8	33.8	88	30.6	2	5	90	0.00	30.171 
03:55	33.7	33.7	33.7	89	30.8	2	6	90	0.00	30.171 
04:00	33.5	33.5	33.5	89	30.6	3	6	90	0.00	30.164 
04:05	33.4	33.4	33.4	90	30.8	2	4	90	0.01	30.164 
04:10	33.2	33.2	33.2	90	30.6	2	6	90	0.00	30.164 
04:15	33.2	33.2	33.2	91	30.9	3	5	90	0.00	30.159 
04:20	33.1	33.1	33.1	91	30.8	2	4	90	0.00	30.159 
04:25	32.9	32.9	32.9	91	30.6	3	6	112	0.00	30.159 
04:30	32.7	28.9	32.7	91	30.4	4	9	90	0.00	30.155 
04:35	32.5	32.5	32.5	91	30.2	2	7	90	0.00	30.155 
04:40	32.4	32.4	32.4	91	30.1	3	7	90	0.00	30.155 
04:45	32.4	32.4	32.4	91	30.1	2	7	90	0.00	30.153 
04:50	32.4	32.4	32.4	91	30.1	2	5	112	0.00	30.153 
04:55	32.2	32.2	32.2	92	30.1	2	4	90	0.00	30.153 
05:00	32.4	32.4	32.4	92	30.3	1	3	90	0.00	30.152 
05:05	32.2	32.2	32.2	92	30.1	2	5	68	0.00	30.152 
05:10	32.2	32.2	32.2	92	30.1	2	5	90	0.00	30.152 
05:15	32.2	32.2	32.2	92	30.1	2	5	112	0.00	30.155 
05:20	32.2	32.2	32.2	92	30.1	1	4	90	0.00	30.155 
05:25	32.2	32.2	32.2	92	30.1	2	4	90	0.00	30.155 
05:30	32.2	32.2	32.2	92	30.1	1	3	68	0.00	30.154 
05:35	32.2	32.2	32.2	92	30.1	1	4	90	0.00	30.154 
05:40	32.2	32.2	32.2	92	30.1	1	4	90	0.00	30.154 
05:45	32.2	32.2	32.2	93	30.4	1	3	90	0.00	30.158 
05:50	32.2	32.2	32.2	93	30.4	1	3	90	0.00	30.158 
05:55	32.2	32.2	32.2	93	30.4	0	2	90	0.00	30.158 
06:00	32.2	32.2	32.2	93	30.4	1	5	90	0.00	30.156 
06:05	32.2	32.2	32.2	93	30.4	1	4	90	0.00	30.156 
06:10	32.1	32.1	32.1	93	30.3	0	3	90	0.00	30.156 
06:15	32.1	32.1	32.1	93	30.3	0	2	90	0.00	30.156 
06:20	32.1	32.1	32.1	93	30.3	1	3	90	0.00	30.156 
06:25	32.1	32.1	32.1	93	30.3	0	2	90	0.00	30.156 
06:30	32.1	32.1	32.1	93	30.3	1	4	90	0.00	30.160 
06:35	32.1	32.1	32.1	93	30.3	1	4	90	0.00	30.160 
06:40	32.1	32.1	32.1	93	30.3	1	4	90	0.00	30.160 
06:45	32.1	32.1	32.1	93	30.3	1	3	90	0.00	30.163 
06:50	32.1	32.1	32.1	93	30.3	2	3	90	0.00	30.163 
06:55	32.1	32.1	32.1	94	30.6	2	5	90	0.00	30.163 
07:00	32.1	32.1	32.1	94	30.6	1	5	68	0.00	30.165 
07:05	32.1	32.1	32.1	94	30.6	1	4	112	0.00	30.165 
07:10	32.1	32.1	32.1	94	30.6	1	5	90	0.00	30.165 
07:15	32.1	32.1	32.1	94	30.6	1	4	90	0.00	30.169 
07:20	32.1	32.1	32.1	94	30.6	1	3	90	0.00	30.169 
07:25	32.1	32.1	32.1	94	30.6	1	3	112	0.00	30.169 
07:30	32.1	32.1	32.1	94	30.6	2	4	112	0.00	30.166 
07:35	32.1	32.1	32.1	94	30.6	1	4	90	0.00	30.166 
07:40	32.1	32.1	32.1	94	30.6	1	4	112	0.00	30.166 
07:45	32.1	32.1	32.1	94	30.6	1	3	90	0.00	30.166 
07:50	32.1	32.1	32.1	94	30.6	1	4	90	0.00	30.166 
07:55	32.1	32.1	32.1	94	30.6	2	4	90	0.00	30.166 
08:00	32.1	32.1	32.1	94	30.6	2	4	90	0.00	30.158 
08:05	32.1	32.1	32.1	94	30.6	2	4	90	0.00	30.158 
08:10	32.1	32.1	32.1	94	30.6	2	6	112	0.00	30.158 
08:15	32.2	32.2	32.2	94	30.7	1	3	112	0.00	30.163 
08:20	32.2	32.2	32.2	94	30.7	1	3	112	0.00	30.163 
08:25	32.2	32.2	32.2	94	30.7	2	6	90	0.00	30.163 
08:30	32.2	32.2	32.2	94	30.7	2	6	90	0.00	30.168 
08:35	32.2	32.2	32.2	94	30.7	2	4	90	0.00	30.168 
08:40	32.2	32.2	32.2	94	30.7	2	4	112	0.00	30.168 
08:45	32.1	32.1	32.1	94	30.6	3	6	90	0.00	30.169 
08:50	32.1	32.1	32.1	94	30.6	2	6	112	0.00	30.169 
08:55	32.1	32.1	32.1	94	30.6	1	4	68	0.00	30.169 
09:00	31.9	31.9	31.9	94	30.4	2	5	90	0.00	30.165 
09:05	31.9	31.9	31.9	94	30.4	3	8	90	0.00	30.165 
09:10	31.8	31.8	31.8	94	30.3	2	6	90	0.00	30.165 
09:15	31.8	31.8	31.8	94	30.3	2	6	112	0.00	30.162 
09:20	31.8	31.8	31.8	94	30.3	3	7	90	0.00	30.162 
09:25	31.8	31.8	31.8	94	30.3	2	5	112	0.00	30.162 
09:30	31.8	31.8	31.8	94	30.3	2	7	112	0.00	30.156 
09:35	31.8	31.8	31.8	94	30.3	3	6	90	0.00	30.156 
09:40	31.9	31.9	31.9	94	30.4	2	5	90	0.00	30.156 
09:45	31.9	31.9	31.9	94	30.4	3	6	90	0.00	30.155 
09:50	31.9	31.9	31.9	94	30.4	3	6	90	0.00	30.155 
09:55	31.9	31.9	31.9	94	30.4	2	6	90	0.00	30.155 
10:00	31.9	31.9	31.9	94	30.4	2	4	90	0.00	30.157 
10:05	31.9	31.9	31.9	94	30.4	2	6	90	0.00	30.157 
10:10	31.9	31.9	31.9	94	30.4	3	6	112	0.00	30.157 
10:15	32.1	32.1	32.1	94	30.6	2	5	90	0.00	30.153 
10:20	32.1	32.1	32.1	94	30.6	3	7	90	0.00	30.153 
10:25	32.1	32.1	32.1	94	30.6	3	7	90	0.00	30.153 
10:30	32.1	32.1	32.1	94	30.6	3	7	90	0.00	30.134 
10:35	32.1	32.1	32.1	94	30.6	3	5	90	0.00	30.134 
10:40	32.1	32.1	32.1	94	30.6	3	6	90	0.00	30.134 
10:45	32.1	28.2	32.1	94	30.6	4	10	90	0.00	30.124 
10:50	32.1	28.2	32.1	94	30.6	4	9	90	0.00	30.124 
10:55	32.1	32.1	32.1	94	30.6	3	7	90	0.00	30.124 
11:00	32.1	28.2	32.1	94	30.6	4	10	90	0.00	30.126 
11:05	32.1	28.2	32.1	94	30.6	4	7	90	0.00	30.126 
11:10	32.1	28.2	32.1	94	30.6	4	7	90	0.00	30.126 
11:15	32.2	32.2	32.2	94	30.7	3	9	112	0.00	30.126 
11:20	32.2	32.2	32.2	94	30.7	2	5	90	0.00	30.126 
11:25	32.2	32.2	32.2	94	30.7	3	5	112	0.00	30.126 
11:30	32.4	32.4	32.4	94	30.9	3	5	112	0.00	30.112 
11:35	32.4	28.5	32.4	94	30.9	4	9	90	0.00	30.112 
11:40	32.4	28.5	32.4	94	30.9	4	8	112	0.00	30.112 
11:45	32.4	28.5	32.4	94	30.9	4	10	90	0.00	30.107 
11:50	32.4	32.4	32.4	94	30.9	3	6	112	0.00	30.107 
11:55	32.5	32.5	32.5	94	31.0	3	5	112	0.00	30.107 
12:00	32.5	32.5	32.5	94	31.0	3	10	112	0.00	30.092 
12:05	32.5	32.5	32.5	94	31.0	2	6	90	0.00	30.092 
12:10	32.5	32.5	32.5	94	31.0	3	7	112	0.00	30.092 
12:15	32.4	28.5	32.4	94	30.9	4	7	90	0.00	30.084 
12:20	32.4	28.5	32.4	94	30.9	4	9	90	0.00	30.084 
12:25	32.5	32.5	32.5	94	31.0	3	5	90	0.00	30.084 
12:30	32.5	32.5	32.5	94	31.0	2	7	90	0.00	30.081 
12:35	32.5	32.5	32.5	94	31.0	3	7	90	0.00	30.081 
12:40	32.5	32.5	32.5	94	31.0	2	6	90	0.01	30.081 
12:45	32.5	32.5	32.5	94	31.0	3	9	112	0.00	30.066 
12:50	32.5	32.5	32.5	94	31.0	2	6	112	0.00	30.066 
12:55	32.5	32.5	32.5	94	31.0	2	5	112	0.00	30.066 
13:00	32.5	32.5	32.5	94	31.0	2	7	90	0.00	30.068 
13:05	32.7	32.7	32.7	94	31.2	3	5	112	0.00	30.068 
13:10	32.7	32.7	32.7	94	31.2	1	6	112	0.00	30.068 
13:15	32.7	32.7	32.7	94	31.2	2	7	90	0.00	30.059 
13:20	32.7	32.7	32.7	94	31.2	3	6	112	0.01	30.059 
13:25	32.7	32.7	32.7	94	31.2	3	7	90	0.00	30.059 
13:30	32.7	32.7	32.7	94	31.2	3	6	112	0.00	30.059 
13:35	32.7	32.7	32.7	94	31.2	1	4	90	0.00	30.059 
13:40	32.7	32.7	32.7	94	31.2	2	5	90	0.00	30.059 
13:45	32.7	32.7	32.7	94	31.2	2	6	90	0.00	30.050 
13:50	32.8	32.8	32.8	94	31.3	2	5	90	0.00	30.050 
13:55	32.8	32.8	32.8	94	31.3	3	5	90	0.00	30.050 
14:00	32.8	32.8	32.8	94	31.3	2	5	90	0.00	30.038 
14:05	32.9	32.9	32.9	94	31.4	2	5	112	0.00	30.038 
14:10	32.9	32.9	32.9	94	31.4	1	3	112	0.01	30.038 
14:15	32.9	32.9	32.9	94	31.4	3	5	112	0.00	30.039 
14:20	32.9	32.9	32.9	94	31.4	1	4	112	0.00	30.039 
14:25	32.9	32.9	32.9	94	31.4	2	6	90	0.00	30.039 
14:30	32.9	32.9	32.9	94	31.4	2	5	68	0.00	30.033 
14:35	33.1	33.1	33.1	94	31.6	2	3	90	0.00	30.033 
14:40	33.1	33.1	33.1	94	31.6	1	6	90	0.00	30.033 
14:45	33.2	33.2	33.2	94	31.7	2	4	90	0.01	30.024 
14:50	33.2	33.2	33.2	94	31.7	2	4	90	0.00	30.024 
14:55	33.2	33.2	33.2	94	31.7	3	5	90	0.00	30.024 
15:00	33.2	33.2	33.2	94	31.7	2	4	90	0.00	30.018 
15:05	33.4	33.4	33.4	94	31.9	1	4	90	0.00	30.018 
15:10	33.4	33.4	33.4	94	31.9	1	4	90	0.00	30.018 
15:15	33.4	33.4	33.4	95	32.1	2	4	90	0.00	30.005 
15:20	33.5	33.5	33.5	95	32.2	1	4	90	0.00	30.005 
15:25	33.5	33.5	33.5	95	32.2	2	4	90	0.01	30.005 
15:30	33.5	33.5	33.5	95	32.2	2	5	90	0.00	30.003 
15:35	33.7	33.7	33.7	95	32.4	2	6	90	0.00	30.003 
15:40	33.7	33.7	33.7	95	32.4	1	4	90	0.00	30.003 
15:45	33.8	33.8	33.8	95	32.5	2	4	90	0.00	29.996 
15:50	33.8	33.8	33.8	95	32.5	2	5	90	0.00	29.996 
15:55	34.0	34.0	34.0	95	32.7	2	6	112	0.00	29.996 
16:00	34.0	34.0	34.0	95	32.7	2	5	90	0.00	29.987 
16:05	34.1	34.1	34.1	95	32.8	2	4	90	0.00	29.987 
16:10	34.1	34.1	34.1	95	32.8	1	4	90	0.01	29.987 
16:15	34.3	34.3	34.3	95	33.0	2	4	112	0.00	29.993 
16:20	34.3	34.3	34.3	95	33.0	1	3	112	0.00	29.993 
16:25	34.3	34.3	34.3	95	33.0	1	4	90	0.00	29.993 
16:30	34.4	34.4	34.4	95	33.1	2	5	90	0.00	29.991 
16:35	34.4	34.4	34.4	95	33.1	2	4	90	0.00	29.991 
16:40	34.6	34.6	34.6	95	33.3	2	6	90	0.00	29.991 
16:45	34.6	34.6	34.6	95	33.3	2	5	90	0.00	29.984 
16:50	34.6	34.6	34.6	95	33.3	1	3	90	0.00	29.984 
16:55	34.7	34.7	34.7	95	33.4	1	3	90	0.00	29.984 
17:00	34.7	34.7	34.7	95	33.4	0	3	90	0.00	29.996 
17:05	34.9	34.9	34.9	95	33.6	2	4	90	0.00	29.996 
17:10	34.9	34.9	34.9	95	33.6	2	4	90	0.00	29.996 
17:15	34.9	34.9	34.9	95	33.6	1	2	90	0.00	29.990 
17:20	35.0	35.0	35.0	95	33.7	2	3	90	0.00	29.990 
17:25	35.0	35.0	35.0	95	33.7	2	5	90	0.01	29.990 
17:30	35.0	35.0	35.0	95	33.7	2	6	90	0.00	29.980 
17:35	35.0	35.0	35.0	95	33.7	1	5	90	0.00	29.980 
17:40	35.0	35.0	35.0	95	33.7	1	3	90	0.00	29.980 
17:45	35.2	35.2	35.2	95	33.9	1	4	90	0.00	29.979 
17:50	35.2	35.2	35.2	95	33.9	2	4	90	0.00	29.979 
17:55	35.2	35.2	35.2	96	34.2	2	4	90	0.01	29.979 
18:00	35.2	35.2	35.2	95	33.9	1	3	90	0.00	29.974 
18:05	35.2	35.2	35.2	96	34.2	2	5	90	0.00	29.974 
18:10	35.3	35.3	35.3	96	34.3	1	3	90	0.00	29.974 
18:15	35.3	35.3	35.3	96	34.3	2	4	112	0.00	29.971 
18:20	35.3	35.3	35.3	96	34.3	2	4	90	0.00	29.971 
18:25	35.3	35.3	35.3	96	34.3	2	5	90	0.00	29.971 
18:30	35.3	35.3	35.3	96	34.3	1	4	90	0.00	29.973 
18:35	35.5	35.5	35.5	96	34.5	2	4	90	0.00	29.973 
18:40	35.5	35.5	35.5	96	34.5	1	4	90	0.00	29.973 
18:45	35.5	35.5	35.5	96	34.5	1	3	90	0.00	29.956 
18:50	35.5	35.5	35.5	96	34.5	0	2	90	0.01	29.956 
18:55	35.5	35.5	35.5	96	34.5	2	4	90	0.00	29.956 
19:00	35.5	35.5	35.5	96	34.5	2	5	112	0.00	29.941 
19:05	35.5	35.5	35.5	96	34.5	1	3	112	0.00	29.941 
19:10	35.5	35.5	35.5	96	34.5	1	3	112	0.00	29.941 
19:15	35.6	35.6	35.6	96	34.6	2	4	90	0.00	29.937 
19:20	35.6	35.6	35.6	96	34.6	2	4	90	0.00	29.937 
19:25	35.6	35.6	35.6	96	34.6	1	5	90	0.00	29.937 
19:30	35.6	35.6	35.6	96	34.6	1	7	112	0.00	29.940 
19:35	35.6	35.6	35.6	96	34.6	1	4	112	0.00	29.940 
19:40	35.6	35.6	35.6	96	34.6	2	6	90	0.00	29.940 
19:45	35.8	35.8	35.8	96	34.8	2	3	90	0.01	29.939 
19:50	35.8	35.8	35.8	96	34.8	1	4	90	0.02	29.939 
19:55	35.8	35.8	35.8	96	34.8	1	4	90	0.00	29.939 
20:00	35.8	35.8	35.8	96	34.8	0	3	90	0.00	29.941 
20:05	35.8	35.8	35.8	96	34.8	1	2	90	0.00	29.941 
20:10	35.8	35.8	35.8	96	34.8	1	4	90	0.00	29.941 
20:15	35.6	35.6	35.6	96	34.6	1	4	90	0.00	29.932 
20:20	35.6	35.6	35.6	96	34.6	1	3	90	0.00	29.932 
20:25	35.6	35.6	35.6	96	34.6	1	4	90	0.01	29.932 
20:30	35.6	35.6	35.6	96	34.6	1	4	90	0.00	29.937 
20:35	35.8	35.8	35.8	96	34.8	1	3	90	0.00	29.937 
20:40	35.8	35.8	35.8	96	34.8	1	3	90	0.00	29.937 
20:45	35.8	35.8	35.8	96	34.8	0	3	90	0.00	29.937 
20:50	35.8	35.8	35.8	96	34.8	0	2	90	0.00	29.937 
20:55	35.9	35.9	35.9	96	34.9	1	4	90	0.00	29.937 
21:00	35.9	35.9	35.9	96	34.9	1	4	90	0.00	29.926 
21:05	36.0	36.0	36.0	96	35.0	0	2	90	0.00	29.926 
21:10	36.0	36.0	36.0	96	35.0	0	4	90	0.00	29.926 
21:15	36.2	36.2	36.2	96	35.2	2	5	90	0.00	29.909 
21:20	36.2	36.2	36.2	96	35.2	1	4	90	0.01	29.909 
21:25	36.3	36.3	36.3	96	35.3	2	5	90	0.00	29.909 
21:30	36.3	36.3	36.3	96	35.3	1	5	112	0.00	29.907 
21:35	36.5	36.5	36.5	96	35.5	0	2	112	0.00	29.907 
21:40	36.5	36.5	36.5	96	35.5	0	3	112	0.00	29.907 
21:45	36.5	36.5	36.5	96	35.5	1	3	112	0.00	29.910 
21:50	36.5	36.5	36.5	96	35.5	1	4	112	0.00	29.910 
21:55	36.5	36.5	36.5	96	35.5	1	4	112	0.00	29.910 
22:00	36.5	36.5	36.5	96	35.5	1	2	112	0.00	29.899 
22:05	36.5	36.5	36.5	96	35.5	1	3	112	0.01	29.899 
22:10	36.6	36.6	36.6	96	35.6	0	2	112	0.00	29.899 
22:15	36.8	36.8	36.8	96	35.8	1	3	112	0.00	29.889 
22:20	36.8	36.8	36.8	96	35.8	1	4	112	0.00	29.889 
22:25	36.8	36.8	36.8	96	35.8	1	4	90	0.00	29.889 
22:30	36.8	36.8	36.8	96	35.8	1	3	90	0.00	29.880 
22:35	36.9	36.9	36.9	96	35.9	1	3	90	0.00	29.880 
22:40	36.9	36.9	36.9	96	35.9	0	3	90	0.00	29.880 
22:45	37.0	37.0	37.0	96	36.0	1	4	90	0.00	29.877 
22:50	37.0	37.0	37.0	96	36.0	1	3	90	0.01	29.877 
22:55	37.0	37.0	37.0	96	36.0	1	3	90	0.00	29.877 
23:00	37.2	37.2	37.2	97	36.4	1	3	90	0.00	29.867 
23:05	37.2	37.2	37.2	97	36.4	1	3	90	0.00	29.867 
23:10	37.3	37.3	37.3	97	36.5	0	2	90	0.00	29.867 
23:15	37.3	37.3	37.3	97	36.5	0	2	90	0.00	29.857 
23:20	37.3	37.3	37.3	97	36.5	0	2	90	0.00	29.857 
23:25	37.5	37.5	37.5	97	36.7	1	3	90	0.00	29.857 
23:30	37.6	37.6	37.6	97	36.8	1	2	90	0.00	29.847 
23:35	37.6	37.6	37.6	97	36.8	0	2	90	0.00	29.847 
23:40	37.6	37.6	37.6	97	36.8	0	1	90	0.00	29.847 
23:45	37.8	37.8	37.8	97	37.0	0	2	90	0.00	29.849 
23:50	37.8	37.8	37.8	97	37.0	0	1	90	0.00	29.849 
23:55	37.9	37.9	37.9	97	37.1	0	1	90	0.00	29.849 

CoCoRaHS
IN-AL-39
A2 Web Hosting
Creative Commons License
GoDaddy
search engine by freefind advanced

loaded 2018-11-17 06:08:15 • last modified 2010-11-18 10:43:29
Privacy PolicyDisclaimer
• wx.awcolley.com is powered by PmWiki v.2002016 •
• all content (unless otherwise noted) © 2018 A W Colley